createdAt,value
2017-08-31T00:02:08.862Z,96223.65
2017-08-31T00:04:34.871Z,96222.05
2017-08-31T00:07:00.646Z,96223.00
2017-08-31T00:09:26.418Z,96224.23
2017-08-31T00:11:52.198Z,96221.27
2017-08-31T00:14:17.990Z,96215.30
2017-08-31T00:16:43.751Z,96209.52
2017-08-31T00:19:09.588Z,96211.41
2017-08-31T00:21:35.344Z,96203.47
2017-08-31T00:24:01.116Z,96202.25
2017-08-31T00:26:26.902Z,96207.22
2017-08-31T00:28:52.691Z,96206.80
2017-08-31T00:31:19.139Z,96202.58
2017-08-31T00:33:44.899Z,96188.59
2017-08-31T00:36:10.667Z,96178.75
2017-08-31T00:38:36.454Z,96171.58
2017-08-31T00:41:02.264Z,96158.94
2017-08-31T00:43:28.023Z,96169.27
2017-08-31T00:45:53.843Z,96174.56
2017-08-31T00:48:19.635Z,96179.20
2017-08-31T00:50:45.434Z,96185.22
2017-08-31T00:53:11.235Z,96184.33
2017-08-31T00:55:37.071Z,96184.86
2017-08-31T00:58:02.912Z,96186.22
2017-08-31T01:00:28.684Z,96195.42
2017-08-31T01:02:54.466Z,96191.83
2017-08-31T01:05:20.272Z,96184.05
2017-08-31T01:07:46.100Z,96185.38
2017-08-31T01:10:11.883Z,96191.66
2017-08-31T01:12:37.643Z,96187.11
2017-08-31T01:15:03.503Z,96193.62
2017-08-31T01:17:29.399Z,96185.61
2017-08-31T01:19:55.179Z,96184.95
2017-08-31T01:22:20.970Z,96177.94
2017-08-31T01:24:46.858Z,96175.56
2017-08-31T01:27:12.671Z,96172.30
2017-08-31T01:29:38.479Z,96174.81
2017-08-31T01:32:04.247Z,96180.52
2017-08-31T01:34:30.011Z,96187.77
2017-08-31T01:36:55.831Z,96182.23
2017-08-31T01:39:21.627Z,96180.19
2017-08-31T01:41:47.463Z,96182.42
2017-08-31T01:44:13.231Z,96186.45
2017-08-31T01:46:39.026Z,96182.33
2017-08-31T01:49:04.830Z,96181.74
2017-08-31T01:51:30.603Z,96186.52
2017-08-31T01:53:56.440Z,96174.87
2017-08-31T01:56:22.287Z,96189.08
2017-08-31T01:58:48.079Z,96192.14
2017-08-31T02:01:13.886Z,96193.61
2017-08-31T02:03:39.647Z,96178.84
2017-08-31T02:06:05.459Z,96177.92
2017-08-31T02:08:31.349Z,96170.77
2017-08-31T02:10:57.142Z,96177.68
2017-08-31T02:13:22.902Z,96164.46
2017-08-31T02:15:48.714Z,96174.97
2017-08-31T02:18:15.155Z,96169.27
2017-08-31T02:20:40.927Z,96178.19
2017-08-31T02:23:06.730Z,96178.02
2017-08-31T02:25:32.603Z,96174.87
2017-08-31T02:27:58.379Z,96169.69
2017-08-31T02:30:24.176Z,96163.72
2017-08-31T02:32:49.975Z,96171.75
2017-08-31T02:35:15.767Z,96167.54
2017-08-31T02:37:41.526Z,96160.34
2017-08-31T02:40:07.311Z,96162.89
2017-08-31T02:42:33.096Z,96169.03
2017-08-31T02:44:58.913Z,96169.00
2017-08-31T02:47:24.687Z,96173.33
2017-08-31T02:49:50.447Z,96171.41
2017-08-31T02:52:16.223Z,96173.81
2017-08-31T02:54:42.006Z,96181.57
2017-08-31T02:57:07.767Z,96174.97
2017-08-31T02:59:33.543Z,96175.30
2017-08-31T03:01:59.335Z,96174.87
2017-08-31T03:04:25.135Z,96175.22
2017-08-31T03:06:51.006Z,96167.61
2017-08-31T03:09:16.780Z,96161.56
2017-08-31T03:11:42.544Z,96158.79
2017-08-31T03:14:08.328Z,96153.14
2017-08-31T03:16:34.091Z,96151.48
2017-08-31T03:18:59.876Z,96146.33
2017-08-31T03:21:25.658Z,96146.96
2017-08-31T03:23:51.475Z,96147.33
2017-08-31T03:26:17.282Z,96154.51
2017-08-31T03:28:43.041Z,96140.16
2017-08-31T03:31:08.809Z,96140.97
2017-08-31T03:33:34.699Z,96147.16
2017-08-31T03:36:00.454Z,96154.91
2017-08-31T03:38:26.259Z,96148.77
2017-08-31T03:40:52.012Z,96145.96
2017-08-31T03:43:17.763Z,96141.87
2017-08-31T03:45:43.539Z,96142.84
2017-08-31T03:48:09.283Z,96138.03
2017-08-31T03:50:35.035Z,96138.08
2017-08-31T03:53:00.823Z,96144.84
2017-08-31T03:55:26.571Z,96144.50
2017-08-31T03:57:52.335Z,96148.62
2017-08-31T04:00:18.155Z,96157.63
2017-08-31T04:02:43.910Z,96160.17
2017-08-31T04:05:09.714Z,96170.90
2017-08-31T04:07:35.470Z,96168.47
2017-08-31T04:10:01.364Z,96163.61
2017-08-31T04:12:27.168Z,96177.20
2017-08-31T04:14:52.979Z,96175.34
2017-08-31T04:17:18.832Z,96167.64
2017-08-31T04:19:44.618Z,96192.48
2017-08-31T04:22:10.371Z,96227.49
2017-08-31T04:24:36.151Z,96234.73
2017-08-31T04:27:01.946Z,96214.42
2017-08-31T04:29:27.724Z,96203.71
2017-08-31T04:31:53.528Z,96217.76
2017-08-31T04:34:19.307Z,96203.80
2017-08-31T04:36:45.071Z,96190.09
2017-08-31T04:39:10.852Z,96204.77
2017-08-31T04:41:36.623Z,96186.10
2017-08-31T04:44:02.391Z,96165.70
2017-08-31T04:46:28.167Z,96135.91
2017-08-31T04:48:53.928Z,96145.95
2017-08-31T04:51:19.815Z,96160.78
2017-08-31T04:53:45.590Z,96177.97
2017-08-31T04:56:11.934Z,96184.78
2017-08-31T04:58:37.703Z,96181.33
2017-08-31T05:01:03.483Z,96183.16
2017-08-31T05:03:29.272Z,96182.53
2017-08-31T05:05:55.079Z,96181.87
2017-08-31T05:08:20.851Z,96177.01
2017-08-31T05:10:46.641Z,96172.59
2017-08-31T05:13:12.448Z,96175.96
2017-08-31T05:15:38.219Z,96172.03
2017-08-31T05:18:04.022Z,96169.36
2017-08-31T05:20:29.826Z,96175.30
2017-08-31T05:22:55.660Z,96164.50
2017-08-31T05:25:21.522Z,96175.33
2017-08-31T05:27:47.383Z,96197.83
2017-08-31T05:30:13.214Z,96197.27
2017-08-31T05:32:39.346Z,96209.29
2017-08-31T05:35:05.147Z,96231.16
2017-08-31T05:37:30.932Z,96257.91
2017-08-31T05:39:56.738Z,96294.16
2017-08-31T05:42:22.515Z,96314.86
2017-08-31T05:44:48.326Z,96329.83
2017-08-31T05:47:14.139Z,96343.00
2017-08-31T05:49:39.918Z,96343.88
2017-08-31T05:52:05.691Z,96350.17
2017-08-31T05:54:31.567Z,96330.95
2017-08-31T05:56:57.351Z,96330.39
2017-08-31T05:59:23.119Z,96337.92
2017-08-31T06:01:48.931Z,96324.66
2017-08-31T06:04:14.727Z,96322.33
2017-08-31T06:06:40.489Z,96332.59
2017-08-31T06:09:06.298Z,96331.97
2017-08-31T06:11:32.080Z,96332.08
2017-08-31T06:13:57.931Z,96329.73
2017-08-31T06:16:23.790Z,96329.36
2017-08-31T06:18:49.559Z,96331.48
2017-08-31T06:21:15.343Z,96336.64
2017-08-31T06:23:41.219Z,96345.49
2017-08-31T06:26:07.024Z,96349.87
2017-08-31T06:28:32.819Z,96351.16
2017-08-31T06:30:58.683Z,96358.28
2017-08-31T06:33:24.482Z,96371.23
2017-08-31T06:35:50.252Z,96369.30
2017-08-31T06:38:16.079Z,96363.83
2017-08-31T06:40:41.908Z,96368.97
2017-08-31T06:43:07.668Z,96375.42
2017-08-31T06:45:33.454Z,96366.81
2017-08-31T06:47:59.251Z,96374.73
2017-08-31T06:50:25.022Z,96382.66
2017-08-31T06:52:50.843Z,96385.61
2017-08-31T06:55:16.599Z,96377.28
2017-08-31T06:57:42.405Z,96381.48
2017-08-31T07:00:08.150Z,96384.59
2017-08-31T07:02:33.938Z,96378.32
2017-08-31T07:04:59.727Z,96392.23
2017-08-31T07:07:25.490Z,96397.33
2017-08-31T07:09:51.247Z,96398.84
2017-08-31T07:12:17.064Z,96396.91
2017-08-31T07:14:42.819Z,96379.16
2017-08-31T07:17:08.584Z,96387.45
2017-08-31T07:19:34.367Z,96396.29
2017-08-31T07:22:00.150Z,96404.05
2017-08-31T07:24:25.920Z,96402.78
2017-08-31T07:26:51.735Z,96398.89
2017-08-31T07:29:17.521Z,96388.30
2017-08-31T07:31:43.283Z,96386.19
2017-08-31T07:34:09.082Z,96385.16
2017-08-31T07:36:34.868Z,96379.41
2017-08-31T07:39:00.632Z,96390.55
2017-08-31T07:41:26.451Z,96402.47
2017-08-31T07:43:52.218Z,96411.31
2017-08-31T07:46:17.979Z,96413.74
2017-08-31T07:48:43.767Z,96422.81
2017-08-31T07:51:09.559Z,96421.98
2017-08-31T07:53:35.342Z,96419.56
2017-08-31T07:56:01.151Z,96422.36
2017-08-31T07:58:26.924Z,96420.65
2017-08-31T08:00:52.683Z,96424.73
2017-08-31T08:03:18.488Z,96429.82
2017-08-31T08:05:44.294Z,96437.22
2017-08-31T08:08:10.063Z,96442.29
2017-08-31T08:10:35.823Z,96443.13
2017-08-31T08:13:01.611Z,96446.70
2017-08-31T08:15:27.367Z,96452.79
2017-08-31T08:17:53.150Z,96458.69
2017-08-31T08:20:19.006Z,96469.17
2017-08-31T08:22:44.796Z,96474.42
2017-08-31T08:25:10.544Z,96482.48
2017-08-31T08:27:36.295Z,96487.81
2017-08-31T08:30:02.096Z,96498.99
2017-08-31T08:32:27.875Z,96496.20
2017-08-31T08:34:53.711Z,96507.31
2017-08-31T08:37:19.476Z,96512.72
2017-08-31T08:39:45.330Z,96515.22
2017-08-31T08:42:11.077Z,96527.57
2017-08-31T08:44:36.924Z,96532.46
2017-08-31T08:47:02.706Z,96535.23
2017-08-31T08:49:28.481Z,96546.71
2017-08-31T08:51:54.291Z,96546.18
2017-08-31T08:54:20.034Z,96552.17
2017-08-31T08:56:45.784Z,96555.07
2017-08-31T08:59:11.567Z,96552.68
2017-08-31T09:01:37.315Z,96546.19
2017-08-31T09:04:03.098Z,96553.52
2017-08-31T09:06:28.885Z,96547.94
2017-08-31T09:08:54.678Z,96552.00
2017-08-31T09:11:20.424Z,96540.09
2017-08-31T09:13:46.315Z,96550.61
2017-08-31T09:16:12.104Z,96555.77
2017-08-31T09:18:37.855Z,96561.88
2017-08-31T09:21:03.623Z,96575.73
2017-08-31T09:23:29.417Z,96572.84
2017-08-31T09:25:55.182Z,96577.34
2017-08-31T09:28:20.944Z,96584.70
2017-08-31T09:30:46.732Z,96584.91
2017-08-31T09:33:12.547Z,96588.64
2017-08-31T09:35:38.309Z,96585.17
2017-08-31T09:38:04.134Z,96605.91
2017-08-31T09:40:29.907Z,96603.66
2017-08-31T09:42:55.671Z,96601.63
2017-08-31T09:45:21.450Z,96600.21
2017-08-31T09:47:47.219Z,96595.45
2017-08-31T09:50:12.992Z,96597.36
2017-08-31T09:52:38.795Z,96601.13
2017-08-31T09:55:04.659Z,96603.39
2017-08-31T09:57:30.426Z,96617.42
2017-08-31T09:59:56.220Z,96632.33
2017-08-31T10:02:22.004Z,96627.14
2017-08-31T10:04:47.779Z,96639.64
2017-08-31T10:07:13.574Z,96649.39
2017-08-31T10:09:40.448Z,96654.45
2017-08-31T10:12:06.227Z,96652.78
2017-08-31T10:14:32.067Z,96656.17
2017-08-31T10:16:57.887Z,96656.51
2017-08-31T10:19:23.691Z,96657.07
2017-08-31T10:21:49.452Z,96656.16
2017-08-31T10:24:15.235Z,96662.36
2017-08-31T10:26:41.038Z,96665.94
2017-08-31T10:29:06.812Z,96665.20
2017-08-31T10:31:32.634Z,96682.17
2017-08-31T10:33:58.463Z,96685.25
2017-08-31T10:36:24.232Z,96684.27
2017-08-31T10:38:50.031Z,96690.86
2017-08-31T10:41:15.797Z,96680.70
2017-08-31T10:43:41.651Z,96690.51
2017-08-31T10:46:07.456Z,96702.64
2017-08-31T10:48:33.231Z,96713.25
2017-08-31T10:50:59.030Z,96719.78
2017-08-31T10:53:24.837Z,96714.77
2017-08-31T10:55:50.655Z,96716.17
2017-08-31T10:58:16.536Z,96716.83
2017-08-31T11:00:42.315Z,96716.78
2017-08-31T11:03:08.102Z,96712.80
2017-08-31T11:05:33.886Z,96714.84
2017-08-31T11:07:59.678Z,96715.03
2017-08-31T11:10:25.457Z,96722.85
2017-08-31T11:12:51.261Z,96723.23
2017-08-31T11:15:17.071Z,96730.78
2017-08-31T11:17:43.027Z,96728.52
2017-08-31T11:20:08.803Z,96740.83
2017-08-31T11:22:34.581Z,96739.73
2017-08-31T11:25:00.388Z,96751.45
2017-08-31T11:27:26.337Z,96751.28
2017-08-31T11:29:52.081Z,96755.38
2017-08-31T11:32:17.865Z,96758.85
2017-08-31T11:34:43.745Z,96761.88
2017-08-31T11:37:09.441Z,96755.10
2017-08-31T11:39:35.205Z,96757.09
2017-08-31T11:42:00.954Z,96767.45
2017-08-31T11:44:26.750Z,96769.16
2017-08-31T11:46:52.550Z,96778.31
2017-08-31T11:49:18.312Z,96780.64
2017-08-31T11:51:44.111Z,96780.70
2017-08-31T11:54:09.884Z,96783.53
2017-08-31T11:56:35.639Z,96791.01
2017-08-31T11:59:01.433Z,96790.13
2017-08-31T12:01:27.193Z,96790.73
2017-08-31T12:03:52.946Z,96791.41
2017-08-31T12:06:18.747Z,96791.09
2017-08-31T12:08:44.547Z,96789.09
2017-08-31T12:11:10.319Z,96791.74
2017-08-31T12:13:36.139Z,96783.88
2017-08-31T12:16:01.900Z,96793.41
2017-08-31T12:18:27.716Z,96799.58
2017-08-31T12:20:53.583Z,96802.34
2017-08-31T12:25:45.035Z,96822.23
2017-08-31T12:28:10.848Z,96823.75
2017-08-31T12:30:36.639Z,96834.33
2017-08-31T12:33:02.402Z,96833.67
2017-08-31T12:35:28.199Z,96833.27
2017-08-31T12:37:53.948Z,96836.08
2017-08-31T12:40:19.839Z,96833.64
2017-08-31T12:42:45.654Z,96853.39
2017-08-31T12:45:11.475Z,96861.87
2017-08-31T12:47:37.294Z,96856.95
2017-08-31T12:50:03.083Z,96853.31
2017-08-31T12:52:28.842Z,96852.31
2017-08-31T12:54:56.058Z,96850.68
2017-08-31T12:57:21.868Z,96855.67
2017-08-31T12:59:47.617Z,96862.45
2017-08-31T13:02:13.508Z,96858.96
2017-08-31T13:04:39.282Z,96865.47
2017-08-31T13:07:05.091Z,96864.20
2017-08-31T13:09:30.843Z,96857.72
2017-08-31T13:11:56.676Z,96861.55
2017-08-31T13:14:22.483Z,96862.44
2017-08-31T13:16:48.279Z,96864.55
2017-08-31T13:19:14.061Z,96862.14
2017-08-31T13:21:39.814Z,96865.34
2017-08-31T13:24:05.591Z,96867.99
2017-08-31T13:26:31.363Z,96877.99
2017-08-31T13:28:57.165Z,96888.05
2017-08-31T13:31:22.965Z,96888.34
2017-08-31T13:33:48.718Z,96894.53
2017-08-31T13:36:14.484Z,96897.65
2017-08-31T13:38:40.366Z,96892.63
2017-08-31T13:41:06.129Z,96890.59
2017-08-31T13:43:31.918Z,96880.84
2017-08-31T13:45:57.683Z,96878.59
2017-08-31T13:48:23.483Z,96879.05
2017-08-31T13:50:49.294Z,96891.35
2017-08-31T13:53:15.043Z,96901.15
2017-08-31T13:55:40.830Z,96894.02
2017-08-31T13:58:06.611Z,96897.96
2017-08-31T14:00:32.375Z,96894.20
2017-08-31T14:02:58.120Z,96902.36
2017-08-31T14:05:24.439Z,96906.52
2017-08-31T14:07:50.671Z,96914.53
2017-08-31T14:10:16.907Z,96916.74
2017-08-31T14:12:44.167Z,96916.02
2017-08-31T14:15:10.398Z,96908.19
2017-08-31T14:17:36.735Z,96898.52
2017-08-31T14:20:02.966Z,96891.82
2017-08-31T14:22:29.103Z,96885.98
2017-08-31T14:24:55.335Z,96884.25
2017-08-31T14:27:21.466Z,96879.30
2017-08-31T14:29:47.231Z,96877.45
2017-08-31T14:32:13.088Z,96871.30
2017-08-31T14:34:38.930Z,96871.56
2017-08-31T14:37:04.783Z,96881.66
2017-08-31T14:39:30.595Z,96879.30
2017-08-31T14:41:56.399Z,96887.22
2017-08-31T14:44:22.204Z,96884.75
2017-08-31T14:46:47.967Z,96890.48
2017-08-31T14:49:13.764Z,96886.70
2017-08-31T14:51:39.528Z,96887.80
2017-08-31T14:54:05.299Z,96880.95
2017-08-31T14:56:31.107Z,96881.61
2017-08-31T14:58:56.991Z,96896.55
2017-08-31T15:01:22.780Z,96908.03
2017-08-31T15:03:48.555Z,96918.65
2017-08-31T15:06:14.341Z,96913.69
2017-08-31T15:08:40.168Z,96909.61
2017-08-31T15:11:06.045Z,96907.64
2017-08-31T15:13:31.882Z,96912.99
2017-08-31T15:15:57.644Z,96918.23
2017-08-31T15:18:23.507Z,96917.84
2017-08-31T15:20:49.306Z,96915.37
2017-08-31T15:23:15.138Z,96911.79
2017-08-31T15:25:40.903Z,96896.75
2017-08-31T15:28:06.705Z,96887.29
2017-08-31T15:30:32.598Z,96894.09
2017-08-31T15:32:58.362Z,96889.27
2017-08-31T15:35:24.159Z,96892.95
2017-08-31T15:37:50.039Z,96901.30
2017-08-31T15:40:15.807Z,96902.74
2017-08-31T15:42:41.655Z,96912.23
2017-08-31T15:45:07.483Z,96916.95
2017-08-31T15:47:33.252Z,96920.97
2017-08-31T15:49:59.015Z,96924.52
2017-08-31T15:52:24.792Z,96920.29
2017-08-31T15:54:50.563Z,96914.75
2017-08-31T15:57:16.351Z,96905.52
2017-08-31T15:59:42.181Z,96903.85
2017-08-31T16:02:07.964Z,96900.04
2017-08-31T16:04:33.734Z,96898.64
2017-08-31T16:06:59.539Z,96898.25
2017-08-31T16:09:25.314Z,96891.56
2017-08-31T16:11:51.059Z,96893.23
2017-08-31T16:14:16.854Z,96894.34
2017-08-31T16:16:42.647Z,96889.32
2017-08-31T16:19:08.415Z,96890.36
2017-08-31T16:21:34.175Z,96886.06
2017-08-31T16:23:59.976Z,96884.83
2017-08-31T16:26:25.747Z,96886.19
2017-08-31T16:28:51.567Z,96885.93
2017-08-31T16:31:17.360Z,96884.70
2017-08-31T16:33:43.147Z,96884.88
2017-08-31T16:36:08.946Z,96889.15
2017-08-31T16:38:34.740Z,96894.42
2017-08-31T16:41:00.522Z,96897.44
2017-08-31T16:43:26.323Z,96905.92
2017-08-31T16:45:52.101Z,96900.27
2017-08-31T16:48:17.896Z,96909.20
2017-08-31T16:50:43.695Z,96917.45
2017-08-31T16:53:09.490Z,96920.29
2017-08-31T16:55:35.258Z,96917.45
2017-08-31T16:58:01.018Z,96921.07
2017-08-31T17:00:26.868Z,96914.53
2017-08-31T17:02:52.655Z,96912.98
2017-08-31T17:05:18.442Z,96912.59
2017-08-31T17:07:44.217Z,96904.27
2017-08-31T17:10:09.976Z,96904.15
2017-08-31T17:12:35.774Z,96918.41
2017-08-31T17:15:01.663Z,96933.84
2017-08-31T17:17:27.439Z,96931.18
2017-08-31T17:19:53.331Z,96933.88
2017-08-31T17:22:19.103Z,96926.08
2017-08-31T17:24:44.850Z,96926.78
2017-08-31T17:27:10.693Z,96926.28
2017-08-31T17:29:36.449Z,96938.91
2017-08-31T17:32:02.224Z,96938.98
2017-08-31T17:34:28.051Z,96947.81
2017-08-31T17:36:53.839Z,96954.27
2017-08-31T17:39:19.635Z,96956.36
2017-08-31T17:41:45.390Z,96944.27
2017-08-31T17:44:11.262Z,96940.53
2017-08-31T17:46:37.043Z,96949.47
2017-08-31T17:49:02.811Z,96957.70
2017-08-31T17:51:28.595Z,96970.27
2017-08-31T17:53:54.351Z,96972.50
2017-08-31T17:56:20.143Z,96971.58
2017-08-31T17:58:45.891Z,96965.19
2017-08-31T18:01:11.652Z,96961.33
2017-08-31T18:03:37.439Z,96952.50
2017-08-31T18:06:03.250Z,96955.41
2017-08-31T18:08:29.031Z,96958.66
2017-08-31T18:10:54.894Z,96968.50
2017-08-31T18:13:20.666Z,96964.22
2017-08-31T18:15:46.450Z,96968.24
2017-08-31T18:18:12.315Z,96967.34
2017-08-31T18:20:38.073Z,96973.47
2017-08-31T18:23:03.851Z,96979.31
2017-08-31T18:25:29.634Z,96982.29
2017-08-31T18:27:55.394Z,96984.42
2017-08-31T18:30:21.160Z,96986.83
2017-08-31T18:32:46.983Z,96996.37
2017-08-31T18:35:12.739Z,97004.73
2017-08-31T18:37:38.537Z,97008.67
2017-08-31T18:40:04.302Z,97007.81
2017-08-31T18:42:30.083Z,97011.39
2017-08-31T18:44:55.843Z,97004.05
2017-08-31T18:47:22.199Z,97005.98
2017-08-31T18:49:48.028Z,97006.93
2017-08-31T18:52:13.777Z,97012.50
2017-08-31T18:54:39.589Z,97016.09
2017-08-31T18:57:05.338Z,97014.63
2017-08-31T18:59:31.107Z,97023.38
2017-08-31T19:01:56.907Z,97028.00
2017-08-31T19:04:22.671Z,97026.56
2017-08-31T19:06:48.431Z,97023.97
2017-08-31T19:09:14.223Z,97027.91
2017-08-31T19:11:40.048Z,97032.81
2017-08-31T19:14:05.798Z,97035.06
2017-08-31T19:16:31.572Z,97032.26
2017-08-31T19:18:57.355Z,97030.85
2017-08-31T19:21:23.211Z,97026.17
2017-08-31T19:23:49.012Z,97037.45
2017-08-31T19:26:14.824Z,97032.45
2017-08-31T19:28:41.392Z,97033.20
2017-08-31T19:31:07.154Z,97038.59
2017-08-31T19:33:33.001Z,97036.31
2017-08-31T19:35:58.765Z,97034.36
2017-08-31T19:38:24.611Z,97033.06
2017-08-31T19:40:50.411Z,97030.13
2017-08-31T19:43:16.200Z,97027.87
2017-08-31T19:45:42.035Z,97016.70
2017-08-31T19:48:07.794Z,97014.58
2017-08-31T19:50:33.543Z,97005.67
2017-08-31T19:52:59.390Z,97009.86
2017-08-31T19:55:25.295Z,97007.05
2017-08-31T19:57:51.118Z,96999.34
2017-08-31T20:00:16.982Z,97004.69
2017-08-31T20:02:42.740Z,96992.91
2017-08-31T20:05:08.575Z,96998.79
2017-08-31T20:07:34.387Z,96998.26
2017-08-31T20:10:00.263Z,96996.07
2017-08-31T20:12:26.023Z,97009.30
2017-08-31T20:14:51.904Z,97012.52
2017-08-31T20:17:17.734Z,97015.33
2017-08-31T20:19:43.484Z,97016.11
2017-08-31T20:22:09.238Z,97016.91
2017-08-31T20:24:35.031Z,97016.64
2017-08-31T20:27:00.858Z,97017.50
2017-08-31T20:29:26.612Z,97018.92
2017-08-31T20:31:52.405Z,97025.01
2017-08-31T20:34:18.161Z,97021.28
2017-08-31T20:36:44.002Z,97023.88
2017-08-31T20:39:09.779Z,97024.27
2017-08-31T20:41:35.540Z,97016.96
2017-08-31T20:44:01.328Z,97016.87
2017-08-31T20:46:27.095Z,97022.55
2017-08-31T20:48:52.876Z,97025.54
2017-08-31T20:51:18.635Z,97026.06
2017-08-31T20:53:44.428Z,97025.13
2017-08-31T20:56:10.300Z,97034.33
2017-08-31T20:58:36.093Z,97031.22
2017-08-31T21:01:01.983Z,97037.50
2017-08-31T21:03:27.762Z,97040.98
2017-08-31T21:05:53.607Z,97045.86
2017-08-31T21:08:19.397Z,97049.27
2017-08-31T21:10:45.235Z,97043.92
2017-08-31T21:13:10.984Z,97055.88
2017-08-31T21:15:36.798Z,97060.17
2017-08-31T21:18:02.559Z,97076.09
2017-08-31T21:20:28.308Z,97065.12
2017-08-31T21:22:54.231Z,97064.72
2017-08-31T21:25:19.991Z,97069.61
2017-08-31T21:27:45.750Z,97067.77
2017-08-31T21:30:11.580Z,97069.02
2017-08-31T21:32:37.362Z,97065.28
2017-08-31T21:35:03.111Z,97068.88
2017-08-31T21:37:28.931Z,97066.16
2017-08-31T21:39:54.678Z,97066.36
2017-08-31T21:42:20.480Z,97062.89
2017-08-31T21:44:46.307Z,97064.98
2017-08-31T21:47:12.054Z,97066.36
2017-08-31T21:49:37.811Z,97055.00
2017-08-31T21:52:03.615Z,97050.77
2017-08-31T21:54:29.372Z,97059.87
2017-08-31T21:56:55.126Z,97062.53
2017-08-31T21:59:20.912Z,97058.23
2017-08-31T22:01:46.711Z,97061.35
2017-08-31T22:04:12.472Z,97066.89
2017-08-31T22:06:38.245Z,97070.52
2017-08-31T22:09:04.059Z,97068.39
2017-08-31T22:11:29.835Z,97068.66
2017-08-31T22:13:55.599Z,97070.29
2017-08-31T22:16:21.394Z,97069.11
2017-08-31T22:18:47.159Z,97064.00
2017-08-31T22:21:12.962Z,97070.29
2017-08-31T22:23:38.783Z,97060.04
2017-08-31T22:26:04.575Z,97057.09
2017-08-31T22:28:30.334Z,97055.20
2017-08-31T22:30:56.083Z,97069.11
2017-08-31T22:33:22.844Z,97063.55
2017-08-31T22:35:48.747Z,97058.70
2017-08-31T22:38:14.516Z,97061.28
2017-08-31T22:40:40.383Z,97063.28
2017-08-31T22:43:06.179Z,97067.67
2017-08-31T22:45:31.944Z,97069.07
2017-08-31T22:47:57.732Z,97064.16
2017-08-31T22:50:23.611Z,97064.60
2017-08-31T22:52:49.377Z,97061.75
2017-08-31T22:55:17.255Z,97067.30
2017-08-31T22:57:55.379Z,97066.64
2017-08-31T23:00:21.151Z,97067.92
2017-08-31T23:02:46.935Z,97068.72
2017-08-31T23:05:12.700Z,97067.95
2017-08-31T23:07:38.461Z,97064.34
2017-08-31T23:10:04.307Z,97056.89
2017-08-31T23:12:30.096Z,97056.67
2017-08-31T23:14:55.912Z,97061.37
2017-08-31T23:17:21.707Z,97056.81
2017-08-31T23:19:47.495Z,97060.38
2017-08-31T23:22:13.268Z,97058.70
2017-08-31T23:24:39.055Z,97061.77
2017-08-31T23:27:04.836Z,97057.88
2017-08-31T23:29:30.684Z,97053.03
2017-08-31T23:31:56.511Z,97050.70
2017-08-31T23:34:22.272Z,97047.61
2017-08-31T23:36:48.107Z,97035.00
2017-08-31T23:39:13.883Z,97034.77
2017-08-31T23:41:39.639Z,97023.27
2017-08-31T23:44:05.420Z,97029.17
2017-08-31T23:46:31.219Z,97026.26
2017-08-31T23:48:57.008Z,97024.02
2017-08-31T23:51:22.785Z,97031.50
2017-08-31T23:53:48.588Z,97034.09
2017-08-31T23:56:14.483Z,97030.67
2017-08-31T23:58:40.243Z,97025.77
